createdAt,value
2022-09-14T00:00:23.644Z,100374.47
2022-09-14T00:03:26.578Z,100369.81
2022-09-14T00:06:30.412Z,100371.22
2022-09-14T00:09:33.252Z,100374.50
2022-09-14T00:12:37.353Z,100365.72
2022-09-14T00:15:41.931Z,100358.84
2022-09-14T00:18:44.955Z,100363.00
2022-09-14T00:21:53.225Z,100360.25
2022-09-14T00:24:56.098Z,100367.13
2022-09-14T00:28:00.165Z,100359.97
2022-09-14T00:31:05.197Z,100340.69
2022-09-14T00:34:09.901Z,100345.38
2022-09-14T00:37:13.242Z,100345.13
2022-09-14T00:40:16.238Z,100345.41
2022-09-14T00:43:20.342Z,100347.34
2022-09-14T00:46:23.721Z,100340.19
2022-09-14T00:49:30.995Z,100344.88
2022-09-14T00:52:36.891Z,100344.88
2022-09-14T00:55:39.999Z,100335.25
2022-09-14T00:58:45.677Z,100328.69
2022-09-14T01:01:48.881Z,100325.69
2022-09-14T01:04:52.368Z,100327.88
2022-09-14T01:08:25.816Z,100325.41
2022-09-14T01:11:46.383Z,100314.69
2022-09-14T01:15:07.194Z,100315.25
2022-09-14T01:18:17.498Z,100313.91
2022-09-14T01:21:24.875Z,100310.34
2022-09-14T01:24:36.330Z,100314.72
2022-09-14T01:27:44.221Z,100319.41
2022-09-14T01:30:48.910Z,100317.00
2022-09-14T01:33:58.376Z,100319.22
2022-09-14T01:37:12.811Z,100320.84
2022-09-14T01:40:21.282Z,100308.78
2022-09-14T01:43:30.269Z,100299.72
2022-09-14T01:46:39.918Z,100303.31
2022-09-14T01:49:47.237Z,100315.97
2022-09-14T01:52:54.503Z,100316.78
2022-09-14T01:56:01.175Z,100313.75
2022-09-14T01:59:11.058Z,100320.94
2022-09-14T02:02:18.475Z,100313.53
2022-09-14T02:05:30.606Z,100326.72
2022-09-14T02:08:34.783Z,100325.91
2022-09-14T02:11:38.103Z,100314.34
2022-09-14T02:14:42.451Z,100318.50
2022-09-14T02:17:45.421Z,100315.75
2022-09-14T02:20:52.182Z,100313.53
2022-09-14T02:23:55.151Z,100315.41
2022-09-14T02:26:59.907Z,100319.00
2022-09-14T02:30:04.857Z,100327.00
2022-09-14T02:33:16.626Z,100317.06
2022-09-14T02:36:33.327Z,100316.53
2022-09-14T02:39:44.088Z,100316.00
2022-09-14T02:42:57.317Z,100306.34
2022-09-14T02:46:07.798Z,100305.53
2022-09-14T02:49:18.925Z,100298.94
2022-09-14T02:52:32.170Z,100297.56
2022-09-14T02:55:38.496Z,100299.72
2022-09-14T02:58:43.411Z,100299.75
2022-09-14T03:01:47.829Z,100302.81
2022-09-14T03:04:50.607Z,100300.88
2022-09-14T03:07:53.445Z,100297.88
2022-09-14T03:10:56.442Z,100298.69
2022-09-14T03:13:59.266Z,100302.84
2022-09-14T03:17:03.437Z,100295.66
2022-09-14T03:20:07.111Z,100298.69
2022-09-14T03:23:11.238Z,100291.81
2022-09-14T03:26:15.651Z,100299.50
2022-09-14T03:29:18.368Z,100298.16
2022-09-14T03:32:22.602Z,100293.72
2022-09-14T03:35:25.691Z,100293.19
2022-09-14T03:38:30.216Z,100285.22
2022-09-14T03:41:32.812Z,100287.44
2022-09-14T03:44:35.510Z,100283.59
2022-09-14T03:47:40.122Z,100279.75
2022-09-14T03:50:42.766Z,100279.75
2022-09-14T03:53:46.143Z,100273.16
2022-09-14T03:56:48.682Z,100280.59
2022-09-14T03:59:51.490Z,100280.31
2022-09-14T04:02:55.592Z,100285.00
2022-09-14T04:05:58.214Z,100280.59
2022-09-14T04:09:00.813Z,100283.88
2022-09-14T04:12:03.837Z,100289.94
2022-09-14T04:15:07.144Z,100306.44
2022-09-14T04:18:11.082Z,100302.25
2022-09-14T04:21:16.224Z,100298.97
2022-09-14T04:24:19.203Z,100283.56
2022-09-14T04:27:21.959Z,100287.94
2022-09-14T04:30:24.530Z,100273.84
2022-09-14T04:33:32.036Z,100274.72
2022-09-14T04:36:34.804Z,100275.78
2022-09-14T04:39:37.667Z,100279.63
2022-09-14T04:42:40.276Z,100294.22
2022-09-14T04:45:42.967Z,100291.44
2022-09-14T04:48:47.471Z,100276.84
2022-09-14T04:51:50.593Z,100284.81
2022-09-14T04:54:53.268Z,100274.34
2022-09-14T04:57:55.827Z,100273.47
2022-09-14T05:01:02.470Z,100266.00
2022-09-14T05:04:08.658Z,100273.97
2022-09-14T05:07:11.587Z,100262.13
2022-09-14T05:10:14.218Z,100263.75
2022-09-14T05:13:16.779Z,100267.56
2022-09-14T05:16:21.085Z,100276.13
2022-09-14T05:19:25.070Z,100268.09
2022-09-14T05:22:27.689Z,100270.03
2022-09-14T05:25:30.388Z,100266.09
2022-09-14T05:28:33.834Z,100268.56
2022-09-14T05:31:36.587Z,100265.22
2022-09-14T05:34:40.531Z,100257.78
2022-09-14T05:37:43.206Z,100257.72
2022-09-14T05:40:45.928Z,100251.41
2022-09-14T05:43:48.519Z,100266.25
2022-09-14T05:46:51.462Z,100257.66
2022-09-14T05:49:55.394Z,100256.00
2022-09-14T05:52:58.117Z,100265.34
2022-09-14T05:56:01.506Z,100262.56
2022-09-14T05:59:04.286Z,100257.88
2022-09-14T06:02:07.902Z,100256.75
2022-09-14T06:05:11.935Z,100255.94
2022-09-14T06:08:14.575Z,100246.00
2022-09-14T06:11:19.311Z,100250.06
2022-09-14T06:14:21.998Z,100246.09
2022-09-14T06:17:24.568Z,100242.97
2022-09-14T06:20:28.687Z,100249.16
2022-09-14T06:23:32.144Z,100247.34
2022-09-14T06:26:34.889Z,100237.22
2022-09-14T06:29:37.478Z,100236.22
2022-09-14T06:32:40.178Z,100240.81
2022-09-14T06:35:46.331Z,100238.47
2022-09-14T06:38:50.302Z,100228.88
2022-09-14T06:41:53.054Z,100231.13
2022-09-14T06:44:55.656Z,100225.09
2022-09-14T06:47:58.823Z,100231.31
2022-09-14T06:51:12.536Z,100236.31
2022-09-14T06:54:16.527Z,100237.50
2022-09-14T06:57:19.229Z,100234.72
2022-09-14T07:00:21.893Z,100229.50
2022-09-14T07:03:24.549Z,100235.34
2022-09-14T07:06:31.202Z,100233.63
2022-09-14T07:09:34.393Z,100233.22
2022-09-14T07:12:37.541Z,100238.84
2022-09-14T07:15:40.165Z,100246.63
2022-09-14T07:18:43.152Z,100240.47
2022-09-14T07:21:48.340Z,100249.44
2022-09-14T07:24:50.899Z,100238.50
2022-09-14T07:27:53.477Z,100237.94
2022-09-14T07:30:59.010Z,100246.00
2022-09-14T07:34:03.774Z,100234.50
2022-09-14T07:37:07.748Z,100238.88
2022-09-14T07:40:11.980Z,100229.00
2022-09-14T07:43:14.947Z,100238.75
2022-09-14T07:46:17.630Z,100237.06
2022-09-14T07:49:22.159Z,100234.78
2022-09-14T07:52:26.259Z,100241.69
2022-09-14T07:55:29.951Z,100237.25
2022-09-14T07:58:32.993Z,100245.63
2022-09-14T08:01:35.719Z,100241.84
2022-09-14T08:04:39.238Z,100249.69
2022-09-14T08:07:43.258Z,100242.19
2022-09-14T08:10:45.801Z,100242.81
2022-09-14T08:13:51.834Z,100238.75
2022-09-14T08:16:54.480Z,100238.41
2022-09-14T08:19:57.219Z,100234.78
2022-09-14T08:23:01.444Z,100235.63
2022-09-14T08:26:05.281Z,100236.28
2022-09-14T08:29:08.275Z,100241.59
2022-09-14T08:32:12.951Z,100250.63
2022-09-14T08:35:15.609Z,100236.53
2022-09-14T08:38:19.522Z,100229.66
2022-09-14T08:41:29.070Z,100236.03
2022-09-14T08:44:37.531Z,100228.00
2022-09-14T08:47:41.921Z,100221.41
2022-09-14T08:50:44.490Z,100227.09
2022-09-14T08:53:50.713Z,100228.44
2022-09-14T08:57:00.589Z,100232.84
2022-09-14T09:03:45.408Z,100234.19
2022-09-14T09:06:58.229Z,100219.75
2022-09-14T09:10:06.132Z,100219.44
2022-09-14T09:13:13.591Z,100213.03
2022-09-14T09:19:28.678Z,100213.22
2022-09-14T09:22:39.116Z,100210.41
2022-09-14T09:25:52.791Z,100209.63
2022-09-14T09:28:58.555Z,100208.81
2022-09-14T09:32:01.375Z,100212.19
2022-09-14T09:35:06.493Z,100194.88
2022-09-14T09:38:15.915Z,100205.13
2022-09-14T09:41:25.044Z,100200.03
2022-09-14T09:44:27.786Z,100200.13
2022-09-14T09:47:33.646Z,100201.94
2022-09-14T09:50:36.330Z,100196.34
2022-09-14T09:53:46.781Z,100211.69
2022-09-14T09:56:56.529Z,100207.97
2022-09-14T10:00:21.176Z,100195.88
2022-09-14T10:03:29.498Z,100183.84
2022-09-14T10:06:33.007Z,100178.88
2022-09-14T10:09:36.591Z,100182.44
2022-09-14T10:12:47.339Z,100185.56
2022-09-14T10:15:50.198Z,100174.50
2022-09-14T10:18:54.521Z,100189.75
2022-09-14T10:22:17.634Z,100179.53
2022-09-14T10:25:23.948Z,100175.53
2022-09-14T10:28:30.539Z,100183.31
2022-09-14T10:31:46.385Z,100182.88
2022-09-14T10:34:49.075Z,100178.06
2022-09-14T10:38:06.093Z,100174.31
2022-09-14T10:41:24.524Z,100169.28
2022-09-14T10:44:46.602Z,100163.13
2022-09-14T10:48:03.635Z,100174.09
2022-09-14T10:51:20.667Z,100165.84
2022-09-14T10:54:46.872Z,100163.50
2022-09-14T10:57:58.019Z,100165.63
2022-09-14T11:01:17.655Z,100163.66
2022-09-14T11:04:37.615Z,100156.78
2022-09-14T11:07:51.587Z,100162.13
2022-09-14T11:11:11.631Z,100157.66
2022-09-14T11:14:29.387Z,100161.75
2022-09-14T11:17:54.034Z,100167.25
2022-09-14T11:21:07.806Z,100170.94
2022-09-14T11:24:19.438Z,100179.25
2022-09-14T11:27:27.928Z,100167.56
2022-09-14T11:30:38.088Z,100151.16
2022-09-14T11:33:49.807Z,100154.59
2022-09-14T11:36:56.913Z,100145.88
2022-09-14T11:40:08.046Z,100154.28
2022-09-14T11:43:15.113Z,100159.41
2022-09-14T11:46:22.456Z,100156.25
2022-09-14T11:49:35.383Z,100155.31
2022-09-14T11:52:37.957Z,100141.78
2022-09-14T11:55:45.486Z,100147.50
2022-09-14T11:58:48.338Z,100147.38
2022-09-14T12:01:51.155Z,100141.28
2022-09-14T12:05:29.801Z,100139.13
2022-09-14T12:08:41.422Z,100131.31
2022-09-14T12:11:45.043Z,100143.75
2022-09-14T12:14:47.802Z,100132.94
2022-09-14T12:17:51.621Z,100136.09
2022-09-14T12:21:07.431Z,100136.13
2022-09-14T12:24:16.690Z,100135.31
2022-09-14T12:27:23.206Z,100137.03
2022-09-14T12:30:40.591Z,100142.50
2022-09-14T12:34:19.906Z,100150.22
2022-09-14T12:37:32.492Z,100137.59
2022-09-14T12:40:39.978Z,100133.50
2022-09-14T12:43:55.267Z,100136.34
2022-09-14T12:46:57.982Z,100136.41
2022-09-14T12:50:13.566Z,100141.06
2022-09-14T12:53:27.154Z,100136.00
2022-09-14T12:56:39.248Z,100133.78
2022-09-14T12:59:53.603Z,100106.69
2022-09-14T13:03:14.976Z,100108.34
2022-09-14T13:06:19.352Z,100103.94
2022-09-14T13:09:25.344Z,100093.31
2022-09-14T13:12:42.096Z,100092.94
2022-09-14T13:15:52.707Z,100092.50
2022-09-14T13:19:01.784Z,100082.34
2022-09-14T13:22:19.162Z,100080.31
2022-09-14T13:25:28.649Z,100071.41
2022-09-14T13:28:33.008Z,100068.50
2022-09-14T13:31:38.739Z,100068.34
2022-09-14T13:34:41.510Z,100070.06
2022-09-14T13:37:48.181Z,100069.38
2022-09-14T13:40:53.640Z,100061.72
2022-09-14T13:43:58.974Z,100076.13
2022-09-14T13:47:04.666Z,100073.94
2022-09-14T13:50:08.537Z,100072.59
2022-09-14T13:53:43.505Z,100078.97
2022-09-14T13:56:47.336Z,100064.00
2022-09-14T14:00:17.394Z,100055.94
2022-09-14T14:03:28.235Z,100067.06
2022-09-14T14:06:34.756Z,100060.28
2022-09-14T14:09:43.622Z,100061.38
2022-09-14T14:12:50.578Z,100056.81
2022-09-14T14:16:14.589Z,100047.50
2022-09-14T14:19:29.104Z,100045.91
2022-09-14T14:22:34.392Z,100043.25
2022-09-14T14:25:45.833Z,100039.06
2022-09-14T14:28:49.002Z,100038.72
2022-09-14T14:31:55.914Z,100032.78
2022-09-14T14:35:05.549Z,100028.31
2022-09-14T14:38:09.503Z,100030.28
2022-09-14T14:41:16.362Z,100023.56
2022-09-14T14:44:22.428Z,100027.34
2022-09-14T14:47:27.534Z,100026.06
2022-09-14T14:50:33.623Z,100031.63
2022-09-14T14:53:36.324Z,100028.69
2022-09-14T14:56:39.276Z,100033.28
2022-09-14T14:59:41.817Z,100036.94
2022-09-14T15:02:46.044Z,100040.22
2022-09-14T15:05:49.919Z,100041.59
2022-09-14T15:08:54.818Z,100032.41
2022-09-14T15:11:57.542Z,100026.22
2022-09-14T15:15:00.988Z,100019.50
2022-09-14T15:18:05.063Z,100014.94
2022-09-14T15:21:08.515Z,100009.84
2022-09-14T15:24:12.180Z,100008.69
2022-09-14T15:27:14.974Z,100007.22
2022-09-14T15:30:17.798Z,100011.34
2022-09-14T15:33:21.699Z,100007.28
2022-09-14T15:36:41.517Z,100005.31
2022-09-14T15:39:50.098Z,99999.16
2022-09-14T15:42:52.912Z,100004.03
2022-09-14T15:45:55.551Z,100004.03
2022-09-14T15:49:00.209Z,100001.06
2022-09-14T15:52:03.479Z,100006.50
2022-09-14T15:55:08.243Z,100004.06
2022-09-14T15:58:11.857Z,100004.25
2022-09-14T16:01:17.067Z,100008.47
2022-09-14T16:04:22.029Z,100001.13
2022-09-14T16:07:24.661Z,99999.66
2022-09-14T16:10:27.415Z,99996.72
2022-09-14T16:13:30.493Z,99992.63
2022-09-14T16:16:34.815Z,99994.31
2022-09-14T16:19:39.311Z,100004.91
2022-09-14T16:22:42.006Z,100005.56
2022-09-14T16:25:44.605Z,100000.34
2022-09-14T16:28:49.390Z,99994.16
2022-09-14T16:31:52.931Z,99999.25
2022-09-14T16:34:56.903Z,100001.34
2022-09-14T16:37:59.448Z,100001.03
2022-09-14T16:41:02.426Z,99985.69
2022-09-14T16:44:06.240Z,99991.88
2022-09-14T16:47:08.812Z,99990.94
2022-09-14T16:50:12.730Z,99992.69
2022-09-14T16:53:15.272Z,99992.88
2022-09-14T16:56:20.171Z,99990.56
2022-09-14T16:59:23.101Z,99992.88
2022-09-14T17:02:25.834Z,99994.78
2022-09-14T17:05:29.915Z,99995.09
2022-09-14T17:08:33.619Z,99989.56
2022-09-14T17:11:37.667Z,99978.59
2022-09-14T17:14:40.381Z,99971.44
2022-09-14T17:17:42.926Z,99973.53
2022-09-14T17:20:55.199Z,99971.91
2022-09-14T17:23:57.817Z,99964.53
2022-09-14T17:27:00.375Z,99968.78
2022-09-14T17:30:03.085Z,99964.81
2022-09-14T17:33:05.643Z,99973.31
2022-09-14T17:36:09.868Z,99961.03
2022-09-14T17:39:13.012Z,99965.75
2022-09-14T17:42:15.559Z,99965.06
2022-09-14T17:45:18.283Z,99960.00
2022-09-14T17:48:21.835Z,99964.22
2022-09-14T17:51:28.027Z,99970.38
2022-09-14T17:54:31.573Z,99968.25
2022-09-14T17:57:34.234Z,99973.94
2022-09-14T18:00:37.278Z,99977.66
2022-09-14T18:03:41.913Z,99972.19
2022-09-14T18:06:50.248Z,99960.94
2022-09-14T18:09:52.924Z,99956.03
2022-09-14T18:12:55.492Z,99951.31
2022-09-14T18:15:58.452Z,99944.47
2022-09-14T18:19:01.513Z,99944.25
2022-09-14T18:22:05.656Z,99943.69
2022-09-14T18:25:09.777Z,99947.09
2022-09-14T18:28:12.693Z,99937.44
2022-09-14T18:31:17.437Z,99936.63
2022-09-14T18:34:21.166Z,99940.53
2022-09-14T18:37:25.103Z,99948.84
2022-09-14T18:40:27.859Z,99952.25
2022-09-14T18:43:32.530Z,99937.50
2022-09-14T18:46:35.372Z,99941.88
2022-09-14T18:49:37.989Z,99949.34
2022-09-14T18:52:42.013Z,99953.53
2022-09-14T18:55:44.589Z,99949.97
2022-09-14T18:58:48.836Z,99946.66
2022-09-14T19:01:51.405Z,99947.47
2022-09-14T19:04:54.383Z,99953.81
2022-09-14T19:07:58.603Z,99955.44
2022-09-14T19:11:06.099Z,99949.66
2022-09-14T19:14:11.647Z,99956.66
2022-09-14T19:17:14.398Z,99947.34
2022-09-14T19:20:18.082Z,99944.50
2022-09-14T19:23:22.112Z,99948.41
2022-09-14T19:26:24.780Z,99949.53
2022-09-14T19:29:28.681Z,99962.88
2022-09-14T19:32:31.248Z,99950.47
2022-09-14T19:35:33.952Z,99953.78
2022-09-14T19:38:38.405Z,99953.59
2022-09-14T19:41:41.453Z,99959.13
2022-09-14T19:44:44.360Z,99960.34
2022-09-14T19:47:47.152Z,99955.78
2022-09-14T19:50:49.785Z,99955.25
2022-09-14T19:53:56.003Z,99951.38
2022-09-14T19:56:58.755Z,99951.47
2022-09-14T20:00:01.351Z,99947.56
2022-09-14T20:03:04.185Z,99956.69
2022-09-14T20:06:09.853Z,99957.81
2022-09-14T20:09:16.588Z,99952.09
2022-09-14T20:12:19.250Z,99949.44
2022-09-14T20:15:22.082Z,99950.03
2022-09-14T20:18:24.829Z,99947.91
2022-09-14T20:21:28.956Z,99959.28
2022-09-14T20:24:32.880Z,99941.97
2022-09-14T20:27:35.605Z,99943.13
2022-09-14T20:30:38.173Z,99948.09
2022-09-14T20:33:41.173Z,99949.34
2022-09-14T20:36:44.128Z,99944.84
2022-09-14T20:39:48.566Z,99939.75
2022-09-14T20:42:53.915Z,99954.75
2022-09-14T20:46:01.070Z,99940.09
2022-09-14T20:49:05.703Z,99960.28
2022-09-14T20:52:08.403Z,99966.31
2022-09-14T20:55:12.290Z,99959.16
2022-09-14T20:58:14.980Z,99956.16
2022-09-14T21:01:19.192Z,99957.09
2022-09-14T21:04:23.620Z,99954.09
2022-09-14T21:07:26.537Z,99960.44
2022-09-14T21:10:30.710Z,99949.19
2022-09-14T21:13:33.580Z,99953.72
2022-09-14T21:16:42.926Z,99959.84
2022-09-14T21:19:45.618Z,99957.66
2022-09-14T21:22:48.527Z,99955.22
2022-09-14T21:25:56.684Z,99947.56
2022-09-14T21:29:01.193Z,99967.50
2022-09-14T21:32:08.307Z,99961.16
2022-09-14T21:35:11.718Z,99960.94
2022-09-14T21:38:14.374Z,99961.84
2022-09-14T21:41:19.619Z,99956.94
2022-09-14T21:44:22.322Z,99963.88
2022-09-14T21:47:24.918Z,99961.13
2022-09-14T21:50:27.681Z,99945.75
2022-09-14T21:53:30.515Z,99943.59
2022-09-14T21:56:37.944Z,99956.28
2022-09-14T21:59:40.568Z,99945.84
2022-09-14T22:02:43.630Z,99956.91
2022-09-14T22:05:56.705Z,99948.09
2022-09-14T22:09:01.127Z,99955.88
2022-09-14T22:12:05.425Z,99944.59
2022-09-14T22:15:09.161Z,99952.56
2022-09-14T22:18:11.704Z,99948.78
2022-09-14T22:21:14.541Z,99947.16
2022-09-14T22:24:19.549Z,99951.34
2022-09-14T22:27:23.776Z,99952.47
2022-09-14T22:30:26.618Z,99949.19
2022-09-14T22:33:29.879Z,99945.66
2022-09-14T22:36:33.106Z,99947.63
2022-09-14T22:39:35.654Z,99938.00
2022-09-14T22:42:39.715Z,99943.22
2022-09-14T22:45:42.323Z,99942.69
2022-09-14T22:48:45.752Z,99938.63
2022-09-14T22:51:48.467Z,99938.63
2022-09-14T22:54:51.139Z,99940.25
2022-09-14T22:57:55.051Z,99932.28
2022-09-14T23:00:57.792Z,99936.16
2022-09-14T23:04:02.661Z,99942.25
2022-09-14T23:07:07.627Z,99937.56
2022-09-14T23:10:10.480Z,99939.72
2022-09-14T23:13:14.564Z,99949.03
2022-09-14T23:16:19.274Z,99948.22
2022-09-14T23:19:22.073Z,99943.53
2022-09-14T23:22:24.706Z,99936.97
2022-09-14T23:25:27.357Z,99944.66
2022-09-14T23:28:31.364Z,99944.56
2022-09-14T23:31:34.801Z,99941.19
2022-09-14T23:34:37.359Z,99928.75
2022-09-14T23:37:40.036Z,99930.06
2022-09-14T23:40:43.160Z,99936.09
2022-09-14T23:43:47.804Z,99928.13
2022-09-14T23:46:50.383Z,99916.28
2022-09-14T23:49:53.107Z,99926.81
2022-09-14T23:52:57.760Z,99913.31
2022-09-14T23:56:00.852Z,99917.47
2022-09-14T23:59:05.138Z,99909.50
